createdAt,value
2019-05-21T00:00:33.538Z,1000.13
2019-05-21T00:01:13.957Z,1000.13
2019-05-21T00:01:54.334Z,1000.15
2019-05-21T00:02:34.767Z,1000.14
2019-05-21T00:03:15.177Z,1000.14
2019-05-21T00:03:55.619Z,1000.2
2019-05-21T00:04:36.017Z,1000.14
2019-05-21T00:05:16.452Z,1000.21
2019-05-21T00:07:34.732Z,1000.21
2019-05-21T00:08:15.432Z,1000.23
2019-05-21T00:08:55.780Z,1000.2
2019-05-21T00:09:36.141Z,1000.22
2019-05-21T00:10:16.570Z,1000.27
2019-05-21T00:10:56.998Z,1000.23
2019-05-21T00:11:37.372Z,1000.2
2019-05-21T00:12:17.810Z,1000.17
2019-05-21T00:12:58.183Z,1000.19
2019-05-21T00:13:38.569Z,1000.15
2019-05-21T00:14:18.966Z,1000.13
2019-05-21T00:14:59.343Z,1000.22
2019-05-21T00:15:39.720Z,1000.18
2019-05-21T00:16:20.118Z,1000.1
2019-05-21T00:17:00.543Z,1000.21
2019-05-21T00:17:40.901Z,1000.19
2019-05-21T00:18:21.277Z,1000.18
2019-05-21T00:19:01.730Z,1000.21
2019-05-21T00:19:42.083Z,1000.13
2019-05-21T00:20:22.486Z,1000.18
2019-05-21T00:21:02.854Z,1000.22
2019-05-21T00:21:43.274Z,1000.18
2019-05-21T00:22:23.624Z,1000.15
2019-05-21T00:23:04.004Z,1000.16
2019-05-21T00:23:44.421Z,1000.15
2019-05-21T00:24:24.804Z,1000.22
2019-05-21T00:25:05.227Z,1000.18
2019-05-21T00:25:45.617Z,1000.16
2019-05-21T00:26:25.999Z,1000.19
2019-05-21T00:27:07.362Z,1000.16
2019-05-21T00:27:49.235Z,1000.19
2019-05-21T00:28:31.448Z,1000.2
2019-05-21T00:29:11.801Z,1000.19
2019-05-21T00:29:52.935Z,1000.22
2019-05-21T00:30:33.341Z,1000.22
2019-05-21T00:31:13.715Z,1000.28
2019-05-21T00:31:54.154Z,1000.29
2019-05-21T00:32:34.524Z,1000.27
2019-05-21T00:33:15.013Z,1000.14
2019-05-21T00:33:55.458Z,1000.23
2019-05-21T00:34:43.732Z,1000.11
2019-05-21T00:35:16.190Z,1000.1
2019-05-21T00:35:56.651Z,1000.08
2019-05-21T00:36:38.130Z,1000.08
2019-05-21T00:37:18.578Z,1000.12
2019-05-21T00:37:58.947Z,1000.04
2019-05-21T00:38:39.345Z,1000.13
2019-05-21T00:39:19.713Z,1000.09
2019-05-21T00:40:00.136Z,1000.14
2019-05-21T00:40:40.619Z,1000.12
2019-05-21T00:41:21.006Z,1000.05
2019-05-21T00:42:01.354Z,1000.06
2019-05-21T00:42:41.756Z,1000.11
2019-05-21T00:43:22.104Z,1000.07
2019-05-21T00:44:04.440Z,1000.01
2019-05-21T00:44:44.839Z,1000.05
2019-05-21T00:45:25.224Z,1000
2019-05-21T00:46:05.708Z,1000.06
2019-05-21T00:46:46.008Z,1000.01
2019-05-21T00:47:27.453Z,999.92
2019-05-21T00:48:07.789Z,1000.07
2019-05-21T00:49:28.508Z,1000.1
2019-05-21T00:50:08.847Z,1000.06
2019-05-21T00:50:49.300Z,1000.03
2019-05-21T00:51:29.619Z,1000.04
2019-05-21T00:52:10.093Z,1000.04
2019-05-21T00:52:50.446Z,1000.04
2019-05-21T00:53:32.441Z,1000
2019-05-21T00:54:12.844Z,1000
2019-05-21T00:54:53.279Z,999.97
2019-05-21T00:55:33.690Z,999.98
2019-05-21T00:56:54.431Z,999.95
2019-05-21T00:57:34.857Z,999.89
2019-05-21T00:58:15.317Z,999.95
2019-05-21T00:58:55.688Z,999.94
2019-05-21T00:59:36.085Z,999.92
2019-05-21T01:00:16.486Z,999.96
2019-05-21T01:00:56.909Z,999.96
2019-05-21T01:01:37.364Z,999.94
2019-05-21T01:02:17.771Z,1000.01
2019-05-21T01:02:58.222Z,999.96
2019-05-21T01:03:38.563Z,999.98
2019-05-21T01:04:20.804Z,999.92
2019-05-21T01:05:01.701Z,999.9
2019-05-21T01:05:43.536Z,999.94
2019-05-21T01:06:23.993Z,999.96
2019-05-21T01:07:04.271Z,999.94
2019-05-21T01:07:45.556Z,999.94
2019-05-21T01:08:25.810Z,999.98
2019-05-21T01:09:06.226Z,1000.01
2019-05-21T01:09:48.546Z,1000.03
2019-05-21T01:10:29.666Z,1000
2019-05-21T01:11:10.144Z,1000.08
2019-05-21T01:11:50.819Z,999.98
2019-05-21T01:12:31.588Z,1000.01
2019-05-21T01:13:13.505Z,1000.12
2019-05-21T01:13:53.922Z,1000
2019-05-21T01:14:36.050Z,1000.08
2019-05-21T01:15:16.449Z,1000.03
2019-05-21T01:15:56.816Z,1000.03
2019-05-21T01:16:37.187Z,1000.03
2019-05-21T01:17:17.582Z,999.98
2019-05-21T01:17:58.022Z,999.96
2019-05-21T01:19:19.865Z,1000.07
2019-05-21T01:20:00.260Z,999.94
2019-05-21T01:20:40.637Z,999.99
2019-05-21T01:21:21.004Z,1000.08
2019-05-21T01:22:01.472Z,1000.06
2019-05-21T01:22:41.867Z,999.99
2019-05-21T01:23:22.213Z,1000.04
2019-05-21T01:24:02.634Z,999.9
2019-05-21T01:24:43.073Z,1000.01
2019-05-21T01:25:23.493Z,1000
2019-05-21T01:26:03.908Z,999.94
2019-05-21T01:26:44.315Z,1000.03
2019-05-21T01:27:24.699Z,1000
2019-05-21T01:28:05.174Z,1000.04
2019-05-21T01:28:45.475Z,999.97
2019-05-21T01:29:26.018Z,999.98
2019-05-21T01:30:06.463Z,999.95
2019-05-21T01:30:46.733Z,999.98
2019-05-21T01:31:27.115Z,999.9
2019-05-21T01:32:07.523Z,999.97
2019-05-21T01:32:48.649Z,999.9
2019-05-21T01:33:29.068Z,999.98
2019-05-21T01:34:11.367Z,1000
2019-05-21T01:34:49.833Z,999.94
2019-05-21T01:35:30.202Z,999.95
2019-05-21T01:36:10.592Z,999.95
2019-05-21T01:36:51.161Z,999.97
2019-05-21T01:37:31.383Z,999.93
2019-05-21T01:38:12.022Z,999.95
2019-05-21T01:38:52.248Z,999.9
2019-05-21T01:39:32.663Z,999.84
2019-05-21T01:40:13.032Z,999.95
2019-05-21T01:40:53.751Z,999.94
2019-05-21T01:41:33.803Z,999.99
2019-05-21T01:42:14.214Z,999.92
2019-05-21T01:42:54.626Z,999.99
2019-05-21T01:44:15.415Z,999.89
2019-05-21T01:44:55.821Z,999.96
2019-05-21T01:45:36.234Z,999.92
2019-05-21T01:46:16.641Z,999.96
2019-05-21T01:46:57.026Z,1000
2019-05-21T01:47:38.095Z,1000.06
2019-05-21T01:48:18.644Z,999.96
2019-05-21T01:48:58.986Z,999.91
2019-05-21T01:49:39.384Z,999.99
2019-05-21T01:50:19.759Z,999.98
2019-05-21T01:51:00.222Z,1000.06
2019-05-21T01:51:41.538Z,1000.02
2019-05-21T01:52:22.259Z,1000.02
2019-05-21T01:53:03.137Z,999.9
2019-05-21T01:53:43.032Z,1000.03
2019-05-21T01:54:23.401Z,1000.02
2019-05-21T01:55:03.925Z,1000.05
2019-05-21T01:55:44.304Z,1000
2019-05-21T01:56:24.742Z,1000.01
2019-05-21T01:57:05.096Z,999.99
2019-05-21T01:57:45.707Z,1000.07
2019-05-21T01:58:26.099Z,1000.08
2019-05-21T01:59:06.466Z,1000.06
2019-05-21T01:59:48.466Z,1000.06
2019-05-21T02:00:28.848Z,1000.06
2019-05-21T02:01:09.212Z,999.99
2019-05-21T02:01:49.642Z,1000.06
2019-05-21T02:02:29.979Z,1000.03
2019-05-21T02:03:10.370Z,1000.06
2019-05-21T02:03:50.998Z,1000.06
2019-05-21T02:04:31.406Z,1000.04
2019-05-21T02:05:12.115Z,999.98
2019-05-21T02:05:52.505Z,1000.11
2019-05-21T02:06:33.062Z,1000.04
2019-05-21T02:07:14.405Z,999.96
2019-05-21T02:07:54.802Z,1000.04
2019-05-21T02:08:36.207Z,999.98
2019-05-21T02:09:16.589Z,1000.05
2019-05-21T02:09:56.924Z,999.95
2019-05-21T02:10:37.349Z,999.99
2019-05-21T02:11:17.690Z,999.92
2019-05-21T02:11:58.167Z,1000.03
2019-05-21T02:12:38.593Z,999.96
2019-05-21T02:13:19.017Z,999.98
2019-05-21T02:13:59.541Z,1000
2019-05-21T02:14:39.978Z,999.97
2019-05-21T02:15:20.316Z,999.92
2019-05-21T02:16:00.698Z,999.83
2019-05-21T02:16:41.090Z,999.94
2019-05-21T02:17:22.438Z,999.99
2019-05-21T02:18:02.882Z,999.97
2019-05-21T02:18:43.284Z,999.93
2019-05-21T02:19:24.542Z,999.97
2019-05-21T02:20:04.974Z,999.88
2019-05-21T02:20:45.388Z,999.82
2019-05-21T02:21:26.392Z,999.87
2019-05-21T02:22:06.783Z,999.88
2019-05-21T02:22:47.299Z,999.9
2019-05-21T02:24:08.104Z,999.9
2019-05-21T02:24:48.441Z,999.96
2019-05-21T02:25:28.941Z,999.93
2019-05-21T02:26:10.149Z,999.99
2019-05-21T02:26:50.538Z,999.98
2019-05-21T02:27:30.954Z,999.95
2019-05-21T02:28:11.332Z,999.98
2019-05-21T02:28:51.764Z,999.96
2019-05-21T02:29:32.112Z,999.93
2019-05-21T02:30:12.675Z,999.91
2019-05-21T02:30:56.340Z,999.92
2019-05-21T02:31:33.287Z,1000.01
2019-05-21T02:32:14.544Z,999.92
2019-05-21T02:32:54.930Z,1000.02
2019-05-21T02:33:35.327Z,1000.01
2019-05-21T02:34:15.679Z,1000.06
2019-05-21T02:34:56.056Z,1000.02
2019-05-21T02:35:52.712Z,1000.04
2019-05-21T02:36:16.824Z,1000.03
2019-05-21T02:36:57.315Z,999.97
2019-05-21T02:37:37.608Z,1000.03
2019-05-21T02:38:18.006Z,999.99
2019-05-21T02:38:58.399Z,1000
2019-05-21T02:39:39.174Z,1000.02
2019-05-21T02:40:19.539Z,1000
2019-05-21T02:41:00.050Z,999.88
2019-05-21T02:41:40.443Z,999.96
2019-05-21T02:42:22.525Z,999.89
2019-05-21T02:43:02.931Z,1000.04
2019-05-21T02:43:43.367Z,999.97
2019-05-21T02:44:23.686Z,1000.05
2019-05-21T02:45:04.140Z,1000.04
2019-05-21T02:45:45.456Z,1000.06
2019-05-21T02:46:26.388Z,1000.06
2019-05-21T02:47:06.771Z,1000.04
2019-05-21T02:47:47.244Z,1000.07
2019-05-21T02:49:07.974Z,1000.08
2019-05-21T02:49:48.379Z,1000.03
2019-05-21T02:50:28.835Z,999.94
2019-05-21T02:51:09.345Z,1000.03
2019-05-21T02:51:49.675Z,1000.05
2019-05-21T02:52:30.023Z,1000.06
2019-05-21T02:53:10.494Z,1000.03
2019-05-21T02:53:50.849Z,1000.04
2019-05-21T02:54:40.638Z,1000.01
2019-05-21T02:55:11.638Z,1000.04
2019-05-21T02:55:52.077Z,1000.01
2019-05-21T02:56:32.629Z,1000.09
2019-05-21T02:57:14.473Z,1000.02
2019-05-21T02:57:54.898Z,1000.08
2019-05-21T02:58:35.348Z,1000.15
2019-05-21T02:59:15.719Z,1000.13
2019-05-21T02:59:56.119Z,1000.17
2019-05-21T03:00:38.723Z,1000.05
2019-05-21T03:01:57.331Z,1000.09
2019-05-21T03:02:37.696Z,1000.1
2019-05-21T03:03:18.453Z,1000.1
2019-05-21T03:03:58.726Z,1000.16
2019-05-21T03:04:39.108Z,1000.12
2019-05-21T03:05:19.487Z,1000.12
2019-05-21T03:06:12.810Z,1000.14
2019-05-21T03:06:40.414Z,1000.24
2019-05-21T03:07:20.657Z,1000.19
2019-05-21T03:08:04.557Z,1000.08
2019-05-21T03:09:25.442Z,1000.12
2019-05-21T03:10:05.848Z,1000.13
2019-05-21T03:10:46.326Z,1000.07
2019-05-21T03:11:26.636Z,1000.17
2019-05-21T03:12:07.037Z,1000.12
2019-05-21T03:12:47.456Z,1000.1
2019-05-21T03:13:27.830Z,1000.07
2019-05-21T03:14:08.251Z,1000.12
2019-05-21T03:14:48.673Z,1000.02
2019-05-21T03:15:29.102Z,1000.13
2019-05-21T03:16:09.769Z,1000.16
2019-05-21T03:16:50.895Z,1000.12
2019-05-21T03:17:31.311Z,1000.14
2019-05-21T03:18:11.977Z,1000.2
2019-05-21T03:18:52.139Z,1000.13
2019-05-21T03:19:32.534Z,1000.03
2019-05-21T03:20:12.922Z,1000.13
2019-05-21T03:20:53.693Z,1000.19
2019-05-21T03:21:34.074Z,1000.15
2019-05-21T03:22:15.051Z,1000.17
2019-05-21T03:22:55.543Z,1000.15
2019-05-21T03:23:35.926Z,1000.13
2019-05-21T03:24:16.389Z,1000.09
2019-05-21T03:25:00.772Z,1000.16
2019-05-21T03:25:37.200Z,1000.15
2019-05-21T03:26:57.964Z,1000.21
2019-05-21T03:27:38.354Z,1000.17
2019-05-21T03:28:19.742Z,1000.17
2019-05-21T03:29:00.084Z,1000.15
2019-05-21T03:29:40.497Z,1000.21
2019-05-21T03:30:20.914Z,1000.19
2019-05-21T03:31:01.930Z,1000.21
2019-05-21T03:31:42.313Z,1000.19
2019-05-21T03:32:22.693Z,1000.1
2019-05-21T03:33:03.122Z,1000.26
2019-05-21T03:34:24.484Z,1000.22
2019-05-21T03:35:05.459Z,1000.24
2019-05-21T03:35:46.007Z,1000.2
2019-05-21T03:36:33.048Z,1000.14
2019-05-21T03:37:06.711Z,1000.18
2019-05-21T03:37:47.133Z,1000.21
2019-05-21T03:38:27.514Z,1000.27
2019-05-21T03:39:07.947Z,1000.18
2019-05-21T03:39:49.332Z,1000.17
2019-05-21T03:40:29.990Z,1000.27
2019-05-21T03:41:51.689Z,1000.21
2019-05-21T03:42:32.107Z,1000.2
2019-05-21T03:43:12.471Z,1000.21
2019-05-21T03:43:52.902Z,1000.21
2019-05-21T03:44:33.305Z,1000.24
2019-05-21T03:45:13.672Z,1000.21
2019-05-21T03:45:54.125Z,1000.24
2019-05-21T03:46:34.615Z,1000.2
2019-05-21T03:47:15.106Z,1000.12
2019-05-21T03:47:55.492Z,1000.2
2019-05-21T03:48:35.786Z,1000.14
2019-05-21T03:49:16.290Z,1000.24
2019-05-21T03:49:56.640Z,1000.19
2019-05-21T03:50:37.086Z,1000.22
2019-05-21T03:51:19.045Z,1000.29
2019-05-21T03:52:01.365Z,1000.26
2019-05-21T03:52:42.014Z,1000.28
2019-05-21T03:53:22.411Z,1000.3
2019-05-21T03:54:04.514Z,1000.31
2019-05-21T03:54:44.885Z,1000.25
2019-05-21T03:55:26.057Z,1000.29
2019-05-21T03:56:06.476Z,1000.33
2019-05-21T03:56:46.879Z,1000.36
2019-05-21T03:57:27.625Z,1000.37
2019-05-21T03:58:07.818Z,1000.43
2019-05-21T03:58:48.227Z,1000.36
2019-05-21T03:59:28.733Z,1000.41
2019-05-21T04:00:09.130Z,1000.44
2019-05-21T04:00:49.524Z,1000.47
2019-05-21T04:01:29.897Z,1000.4
2019-05-21T04:02:10.247Z,1000.35
2019-05-21T04:02:50.788Z,1000.45
2019-05-21T04:03:31.118Z,1000.43
2019-05-21T04:04:11.502Z,1000.46
2019-05-21T04:04:51.968Z,1000.48
2019-05-21T04:05:32.356Z,1000.31
2019-05-21T04:06:13.862Z,1000.3
2019-05-21T04:06:54.101Z,1000.42
2019-05-21T04:07:34.528Z,1000.38
2019-05-21T04:08:14.899Z,1000.39
2019-05-21T04:08:55.275Z,1000.43
2019-05-21T04:09:36.177Z,1000.49
2019-05-21T04:10:16.399Z,1000.45
2019-05-21T04:10:57.715Z,1000.46
2019-05-21T04:11:38.313Z,1000.47
2019-05-21T04:12:18.657Z,1000.47
2019-05-21T04:12:59.153Z,1000.39
2019-05-21T04:13:40.629Z,1000.42
2019-05-21T04:14:21.009Z,1000.44
2019-05-21T04:15:01.719Z,1000.4
2019-05-21T04:15:42.080Z,1000.4
2019-05-21T04:16:22.632Z,1000.45
2019-05-21T04:17:06.347Z,1000.53
2019-05-21T04:17:46.708Z,1000.47
2019-05-21T04:18:27.104Z,1000.55
2019-05-21T04:19:07.492Z,1000.48
2019-05-21T04:19:47.864Z,1000.46
2019-05-21T04:20:28.250Z,1000.49
2019-05-21T04:21:08.658Z,1000.49
2019-05-21T04:22:31.146Z,1000.48
2019-05-21T04:23:11.732Z,1000.52
2019-05-21T04:23:52.128Z,1000.48
2019-05-21T04:24:32.666Z,1000.5
2019-05-21T04:25:14.058Z,1000.47
2019-05-21T04:25:54.419Z,1000.49
2019-05-21T04:26:34.822Z,1000.53
2019-05-21T04:27:15.363Z,1000.52
2019-05-21T05:11:15.929Z,1000.68
2019-05-21T05:11:56.333Z,1000.68
2019-05-21T05:12:36.736Z,1000.61
2019-05-21T05:13:17.371Z,1000.59
2019-05-21T05:13:57.818Z,1000.6
2019-05-21T05:14:38.222Z,1000.65
2019-05-21T05:15:18.858Z,1000.65
2019-05-21T05:16:03.422Z,1000.69
2019-05-21T05:16:40.620Z,1000.62
2019-05-21T05:17:25.319Z,1000.62
2019-05-21T05:18:05.877Z,1000.68
2019-05-21T05:18:47.512Z,1000.65
2019-05-21T05:19:28.134Z,1000.68
2019-05-21T05:20:08.566Z,1000.67
2019-05-21T05:20:48.961Z,1000.71
2019-05-21T05:21:29.400Z,1000.64
2019-05-21T05:25:30.652Z,1000.64
2019-05-21T05:26:11.591Z,1000.69
2019-05-21T05:26:52.493Z,1000.7
2019-05-21T05:27:34.085Z,1000.67
2019-05-21T05:28:15.121Z,1000.65
2019-05-21T05:38:06.082Z,1000.68
2019-05-21T05:38:47.559Z,1000.75
2019-05-21T05:39:28.849Z,1000.76
2019-05-21T05:40:08.890Z,1000.71
2019-05-21T05:40:49.989Z,1000.67
2019-05-21T05:41:31.234Z,1000.71
2019-05-21T05:42:13.536Z,1000.62
2019-05-21T05:42:54.918Z,1000.67
2019-05-21T05:43:35.601Z,1000.71
2019-05-21T05:44:16.470Z,1000.77
2019-05-21T05:44:57.250Z,1000.6
2019-05-21T05:45:37.883Z,1000.7
2019-05-21T05:46:18.291Z,1000.83
2019-05-21T05:46:58.892Z,1000.79
2019-05-21T05:47:39.707Z,1000.78
2019-05-21T05:48:20.440Z,1000.85
2019-05-21T05:49:01.751Z,1000.75
2019-05-21T05:49:41.326Z,1000.84
2019-05-21T05:50:21.835Z,1000.83
2019-05-21T05:51:02.529Z,1000.83
2019-05-21T05:51:43.126Z,1000.87
2019-05-21T05:52:23.701Z,1000.88
2019-05-21T05:53:04.226Z,1000.88
2019-05-21T05:53:45.326Z,1000.97
2019-05-21T05:54:28.026Z,1000.94
2019-05-21T05:55:08.579Z,1000.94
2019-05-21T05:55:49.065Z,1000.95
2019-05-21T05:56:29.925Z,1000.92
2019-05-21T05:57:10.648Z,1000.98
2019-05-21T05:57:57.379Z,1001.05
2019-05-21T05:58:38.543Z,1001.05
2019-05-21T05:59:18.988Z,1000.98
2019-05-21T05:59:59.615Z,1000.97
2019-05-21T06:00:40.108Z,1001.03
2019-05-21T06:01:20.773Z,1000.97
2019-05-21T06:02:01.789Z,1001.04
2019-05-21T06:02:42.414Z,1001
2019-05-21T06:03:23.306Z,1000.95
2019-05-21T06:04:03.929Z,1001.11
2019-05-21T06:04:45.257Z,1001
2019-05-21T06:05:27.577Z,1001.1
2019-05-21T06:06:11.420Z,1001.06
2019-05-21T06:06:52.273Z,1001.07
2019-05-21T06:07:32.892Z,1001.12
2019-05-21T06:08:13.994Z,1001.1
2019-05-21T06:08:55.032Z,1001.08
2019-05-21T06:09:36.386Z,1001.11
2019-05-21T06:10:16.411Z,1001.14
2019-05-21T06:10:57.296Z,1001.06
2019-05-21T06:11:38.895Z,1001.12
2019-05-21T06:12:18.719Z,1001.11
2019-05-21T06:14:27.941Z,1000.97
2019-05-21T06:15:09.923Z,1001.14
2019-05-21T06:15:50.808Z,1000.98
2019-05-21T06:16:34.002Z,1001.16
2019-05-21T06:17:17.618Z,1001.16
2019-05-21T06:18:12.720Z,1001.14
2019-05-21T06:18:54.165Z,1001.16
2019-05-21T06:19:35.434Z,1001.18
2019-05-21T06:20:15.985Z,1001.14
2019-05-21T06:20:56.540Z,1001.21
2019-05-21T06:21:37.928Z,1001.22
2019-05-21T06:22:18.903Z,1001.25
2019-05-21T06:22:58.844Z,1001.2
2019-05-21T06:23:39.497Z,1001.2
2019-05-21T06:24:20.128Z,1001.21
2019-05-21T06:25:00.601Z,1001.23
2019-05-21T06:25:41.621Z,1001.17
2019-05-21T06:26:23.134Z,1001.26
2019-05-21T06:27:03.425Z,1001.24
2019-05-21T06:27:44.181Z,1001.24
2019-05-21T06:28:24.782Z,1001.25
2019-05-21T06:29:05.431Z,1001.29
2019-05-21T06:29:46.195Z,1001.32
2019-05-21T06:30:26.847Z,1001.21
2019-05-21T06:31:08.902Z,1001.3
2019-05-21T06:31:48.679Z,1001.33
2019-05-21T06:32:29.244Z,1001.31
2019-05-21T06:33:09.738Z,1001.36
2019-05-21T06:33:50.207Z,1001.37
2019-05-21T06:34:30.804Z,1001.37
2019-05-21T06:35:11.306Z,1001.4
2019-05-21T06:35:51.832Z,1001.4
2019-05-21T06:36:32.279Z,1001.4
2019-05-21T06:37:12.933Z,1001.39
2019-05-21T06:38:33.830Z,1001.47
2019-05-21T06:39:14.215Z,1001.44
2019-05-21T06:39:54.656Z,1001.5
2019-05-21T06:40:38.262Z,1001.46
2019-05-21T06:41:15.934Z,1001.48
2019-05-21T06:41:56.831Z,1001.53
2019-05-21T06:42:37.929Z,1001.56
2019-05-21T06:43:18.987Z,1001.54
2019-05-21T06:43:59.709Z,1001.54
2019-05-21T06:44:40.636Z,1001.51
2019-05-21T06:45:21.619Z,1001.59
2019-05-21T06:46:02.386Z,1001.55
2019-05-21T06:46:43.063Z,1001.57
2019-05-21T06:47:23.691Z,1001.57
2019-05-21T06:48:05.898Z,1001.51
2019-05-21T06:48:46.352Z,1001.55
2019-05-21T06:49:27.409Z,1001.44
2019-05-21T06:50:08.343Z,1001.54
2019-05-21T06:50:50.179Z,1001.46
2019-05-21T06:51:30.972Z,1001.46
2019-05-21T06:52:11.458Z,1001.51
2019-05-21T06:52:53.436Z,1001.5
2019-05-21T06:53:36.494Z,1001.57
2019-05-21T06:54:17.925Z,1001.54
2019-05-21T06:54:58.264Z,1001.55
2019-05-21T06:55:38.655Z,1001.53
2019-05-21T06:56:19.086Z,1001.61
2019-05-21T06:57:00.024Z,1001.57
2019-05-21T06:57:40.545Z,1001.64
2019-05-21T06:58:22.154Z,1001.65
2019-05-21T06:59:03.413Z,1001.63
2019-05-21T06:59:43.108Z,1001.68
2019-05-21T07:00:24.418Z,1001.63
2019-05-21T07:01:06.916Z,1001.75
2019-05-21T07:01:47.733Z,1001.71
2019-05-21T07:02:28.815Z,1001.73
2019-05-21T07:03:50.019Z,1001.75
2019-05-21T07:04:30.439Z,1001.72
2019-05-21T07:05:10.956Z,1001.68
2019-05-21T07:05:58.595Z,1001.71
2019-05-21T07:06:32.611Z,1001.7
2019-05-21T07:07:13.796Z,1001.69
2019-05-21T07:07:54.556Z,1001.68
2019-05-21T07:08:35.438Z,1001.74
2019-05-21T07:09:16.097Z,1001.69
2019-05-21T07:09:57.537Z,1001.7
2019-05-21T07:10:41.638Z,1001.73
2019-05-21T07:11:22.106Z,1001.64
2019-05-21T07:12:02.723Z,1001.6
2019-05-21T07:12:43.415Z,1001.7
2019-05-21T07:13:24.137Z,1001.69
2019-05-21T07:14:05.037Z,1001.75
2019-05-21T07:14:45.533Z,1001.76
2019-05-21T07:15:27.790Z,1001.73
2019-05-21T07:16:08.271Z,1001.76
2019-05-21T07:16:48.757Z,1001.77
2019-05-21T07:17:29.519Z,1001.8
2019-05-21T07:18:10.103Z,1001.75
2019-05-21T07:18:50.815Z,1001.83
2019-05-21T07:19:31.559Z,1001.81
2019-05-21T07:20:12.154Z,1001.86
2019-05-21T07:20:52.717Z,1001.77
2019-05-21T07:21:33.126Z,1001.87
2019-05-21T07:22:13.681Z,1001.86
2019-05-21T07:22:54.322Z,1001.85
2019-05-21T07:23:34.800Z,1001.9
2019-05-21T07:24:15.382Z,1001.91
2019-05-21T07:24:55.817Z,1001.86
2019-05-21T07:25:36.246Z,1001.89
2019-05-21T07:28:15.221Z,1001.9
2019-05-21T07:28:56.437Z,1001.88
2019-05-21T07:29:39.028Z,1001.92
2019-05-21T07:30:19.605Z,1001.96
2019-05-21T07:31:00.060Z,1001.92
2019-05-21T07:31:43.413Z,1001.94
2019-05-21T07:32:26.860Z,1001.87
2019-05-21T07:33:20.550Z,1001.92
2019-05-21T07:34:01.119Z,1001.98
2019-05-21T07:34:42.303Z,1001.86
2019-05-21T07:35:22.996Z,1001.95
2019-05-21T07:36:03.919Z,1002
2019-05-21T07:36:44.364Z,1001.93
2019-05-21T07:37:28.412Z,1001.95
2019-05-21T07:41:29.435Z,1001.99
2019-05-21T07:42:09.870Z,1001.88
2019-05-21T07:42:50.582Z,1001.98
2019-05-21T07:43:31.019Z,1001.99
2019-05-21T07:44:11.385Z,1001.99
2019-05-21T07:44:51.842Z,1002.07
2019-05-21T07:45:32.289Z,1001.92
2019-05-21T07:46:12.626Z,1002.03
2019-05-21T07:46:53.201Z,1002.02
2019-05-21T07:47:33.770Z,1002.02
2019-05-21T07:48:14.148Z,1002.09
2019-05-21T07:48:54.500Z,1002.07
2019-05-21T07:49:35.013Z,1002.13
2019-05-21T07:50:15.408Z,1002.08
2019-05-21T07:50:57.688Z,1002.08
2019-05-21T07:51:38.204Z,1002.08
2019-05-21T07:52:18.617Z,1002.07
2019-05-21T07:52:58.963Z,1002.04
2019-05-21T07:53:39.396Z,1002.11
2019-05-21T07:54:28.007Z,1002.02
2019-05-21T07:55:06.915Z,1002.11
2019-05-21T07:55:47.344Z,1002.05
2019-05-21T07:56:27.900Z,1002.09
2019-05-21T07:57:08.894Z,1002.04
2019-05-21T07:57:50.828Z,1002.12
2019-05-21T07:58:31.469Z,1002.13
2019-05-21T07:59:11.870Z,1002.14
2019-05-21T07:59:52.250Z,1002.07
2019-05-21T08:00:32.654Z,1002.05
2019-05-21T08:01:13.083Z,1002.15
2019-05-21T08:01:53.479Z,1002.13
2019-05-21T08:02:34.011Z,1002.02
2019-05-21T08:03:14.667Z,1002.2
2019-05-21T08:03:55.043Z,1002.04
2019-05-21T08:04:35.510Z,1002.22
2019-05-21T08:05:15.826Z,1002.18
2019-05-21T08:05:56.351Z,1002.03
2019-05-21T08:06:36.765Z,1002.24
2019-05-21T08:07:19.117Z,1002.25
2019-05-21T08:09:51.237Z,1002.25
2019-05-21T08:10:32.971Z,1002.31
2019-05-21T08:11:13.596Z,1002.2
2019-05-21T08:11:54.023Z,1002.26
2019-05-21T08:12:39.216Z,1002.25
2019-05-21T08:13:16.611Z,1002.22
2019-05-21T08:13:57.074Z,1002.36
2019-05-21T08:14:40.202Z,1002.32
2019-05-21T08:15:20.636Z,1002.34
2019-05-21T08:16:05.768Z,1002.39
2019-05-21T08:16:47.055Z,1002.45
2019-05-21T08:17:27.445Z,1002.46
2019-05-21T08:18:07.820Z,1002.47
2019-05-21T08:18:48.245Z,1002.42
2019-05-21T08:19:31.362Z,1002.39
2019-05-21T08:20:11.043Z,1002.51
2019-05-21T08:20:51.388Z,1002.47
2019-05-21T08:21:33.587Z,1002.51
2019-05-21T08:22:16.803Z,1002.56
2019-05-21T08:22:59.123Z,1002.54
2019-05-21T08:23:39.948Z,1002.45
2019-05-21T08:24:20.402Z,1002.55
2019-05-21T08:25:01.769Z,1002.52
2019-05-21T08:25:42.133Z,1002.56
2019-05-21T08:26:22.749Z,1002.44
2019-05-21T08:27:04.347Z,1002.5
2019-05-21T08:27:44.900Z,1002.44
2019-05-21T08:28:25.218Z,1002.5
2019-05-21T08:29:05.584Z,1002.48
2019-05-21T08:29:46.060Z,1002.56
2019-05-21T08:30:26.422Z,1002.54
2019-05-21T08:31:06.883Z,1002.54
2019-05-21T08:31:47.298Z,1002.49
2019-05-21T08:32:28.746Z,1002.51
2019-05-21T08:33:50.240Z,1002.59
2019-05-21T08:34:30.650Z,1002.51
2019-05-21T08:35:11.230Z,1002.56
2019-05-21T08:35:51.608Z,1002.56
2019-05-21T11:12:31.691Z,1003.94
2019-05-21T11:13:14.830Z,1003.96
2019-05-21T11:13:57.777Z,1003.96
2019-05-21T11:14:38.787Z,1003.97
2019-05-21T11:15:26.219Z,1004
2019-05-21T11:16:16.964Z,1003.93
2019-05-21T11:16:57.783Z,1003.96
2019-05-21T11:17:53.540Z,1004.02
2019-05-21T11:18:22.143Z,1004.03
2019-05-21T11:19:04.134Z,1004.07
2019-05-21T11:19:45.478Z,1004.05
2019-05-21T11:20:28.913Z,1004.08
2019-05-21T11:21:10.421Z,1004.04
2019-05-21T11:21:52.160Z,1003.99
2019-05-21T11:22:33.130Z,1004.05
2019-05-21T11:23:15.442Z,1004.04
2019-05-21T11:23:55.980Z,1004.15
2019-05-21T11:24:37.403Z,1004.11
2019-05-21T11:25:19.902Z,1004.13
2019-05-21T11:32:54.117Z,1004.25
2019-05-21T11:33:35.067Z,1004.2
2019-05-21T11:34:16.973Z,1004.26
2019-05-21T11:34:57.226Z,1004.24
2019-05-21T11:35:37.658Z,1004.28
2019-05-21T11:36:18.446Z,1004.23
2019-05-21T11:36:58.586Z,1004.25
2019-05-21T11:37:39.591Z,1004.26
2019-05-21T11:38:20.264Z,1004.32
2019-05-21T11:39:00.896Z,1004.2
2019-05-21T11:39:41.184Z,1004.32
2019-05-21T11:40:21.591Z,1004.24
2019-05-21T11:41:02.046Z,1004.31
2019-05-21T11:41:42.390Z,1004.27
2019-05-21T11:42:22.893Z,1004.26
2019-05-21T11:43:03.516Z,1004.29
2019-05-21T11:44:24.782Z,1004.35
2019-05-21T11:45:05.297Z,1004.37
2019-05-21T11:45:47.109Z,1004.32
2019-05-21T11:46:29.211Z,1004.38
2019-05-21T11:47:10.572Z,1004.31
2019-05-21T11:47:54.332Z,1004.28
2019-05-21T11:48:31.915Z,1004.38
2019-05-21T11:49:13.363Z,1004.31
2019-05-21T11:49:53.911Z,1004.34
2019-05-21T11:50:34.228Z,1004.3
2019-05-21T11:51:15.128Z,1004.33
2019-05-21T11:51:55.688Z,1004.29
2019-05-21T11:52:36.563Z,1004.38
2019-05-21T11:53:17.523Z,1004.35
2019-05-21T11:53:57.957Z,1004.36
2019-05-21T11:54:38.382Z,1004.44
2019-05-21T11:55:18.818Z,1004.41
2019-05-21T11:55:59.336Z,1004.36
2019-05-21T11:56:39.828Z,1004.42
2019-05-21T11:57:21.423Z,1004.43
2019-05-21T11:58:01.856Z,1004.42
2019-05-21T11:58:42.659Z,1004.46
2019-05-21T11:59:22.635Z,1004.42
2019-05-21T12:00:03.089Z,1004.42
2019-05-21T12:00:44.033Z,1004.39
2019-05-21T12:01:27.278Z,1004.48
2019-05-21T12:02:48.089Z,1004.53
2019-05-21T12:03:27.854Z,1004.46
2019-05-21T12:04:08.278Z,1004.49
2019-05-21T12:04:48.773Z,1004.45
2019-05-21T12:05:29.088Z,1004.51
2019-05-21T12:06:09.491Z,1004.47
2019-05-21T12:06:49.932Z,1004.45
2019-05-21T12:07:30.241Z,1004.44
2019-05-21T12:08:10.654Z,1004.44
2019-05-21T12:08:56.559Z,1004.39
2019-05-21T12:09:34.064Z,1004.49
2019-05-21T12:10:13.841Z,1004.45
2019-05-21T12:10:54.413Z,1004.49
2019-05-21T12:11:34.922Z,1004.52
2019-05-21T12:12:15.254Z,1004.47
2019-05-21T12:12:57.392Z,1004.49
2019-05-21T12:13:37.972Z,1004.47
2019-05-21T12:14:18.892Z,1004.51
2019-05-21T12:15:00.610Z,1004.51
2019-05-21T12:16:58.403Z,1004.47
2019-05-21T12:17:39.883Z,1004.5
2019-05-21T12:18:20.289Z,1004.51
2019-05-21T12:19:00.709Z,1004.46
2019-05-21T12:20:35.125Z,1004.52
2019-05-21T12:21:02.078Z,1004.52